createdAt,value
2022-08-30T00:00:47.960Z,5.07
2022-08-30T00:04:49.896Z,5.25
2022-08-30T00:08:52.491Z,5.05
2022-08-30T00:12:54.825Z,5.30
2022-08-30T00:16:56.796Z,5.45
2022-08-30T00:20:58.795Z,6.03
2022-08-30T00:25:01.289Z,4.63
2022-08-30T00:29:03.591Z,5.25
2022-08-30T00:33:06.061Z,5.25
2022-08-30T00:37:08.027Z,5.20
2022-08-30T00:41:09.988Z,5.00
2022-08-30T00:45:25.080Z,5.38
2022-08-30T00:49:28.453Z,4.30
2022-08-30T00:53:36.686Z,4.53
2022-08-30T00:57:40.805Z,4.28
2022-08-30T01:01:43.168Z,4.70
2022-08-30T01:05:45.871Z,4.85
2022-08-30T01:09:47.850Z,5.10
2022-08-30T01:13:51.872Z,5.70
2022-08-30T01:17:53.840Z,4.72
2022-08-30T01:22:03.185Z,4.95
2022-08-30T01:26:06.461Z,5.18
2022-08-30T01:30:09.942Z,5.10
2022-08-30T01:34:12.596Z,4.40
2022-08-30T01:38:16.053Z,6.97
2022-08-30T01:42:18.276Z,5.35
2022-08-30T01:46:24.458Z,5.30
2022-08-30T01:50:26.623Z,5.80
2022-08-30T01:54:37.009Z,5.28
2022-08-30T01:58:40.543Z,4.82
2022-08-30T02:02:42.579Z,5.07
2022-08-30T02:06:44.862Z,5.85
2022-08-30T02:10:46.763Z,4.90
2022-08-30T02:14:48.681Z,5.07
2022-08-30T02:18:51.999Z,5.25
2022-08-30T02:22:53.952Z,4.90
2022-08-30T02:26:55.939Z,6.88
2022-08-30T02:30:57.978Z,5.60
2022-08-30T02:34:59.936Z,4.50
2022-08-30T02:39:01.802Z,4.80
2022-08-30T02:43:03.724Z,4.88
2022-08-30T02:47:05.770Z,5.00
2022-08-30T02:51:11.507Z,5.60
2022-08-30T02:55:13.713Z,7.00
2022-08-30T02:59:17.035Z,6.07
2022-08-30T03:03:19.230Z,6.25
2022-08-30T03:07:21.693Z,5.18
2022-08-30T03:11:23.888Z,4.65
2022-08-30T03:15:26.200Z,7.55
2022-08-30T03:19:28.770Z,5.13
2022-08-30T03:23:31.580Z,5.07
2022-08-30T03:27:33.538Z,5.82
2022-08-30T03:31:40.650Z,6.13
2022-08-30T03:35:55.769Z,5.82
2022-08-30T03:39:57.741Z,6.07
2022-08-30T03:44:00.974Z,5.65
2022-08-30T03:48:03.702Z,6.30
2022-08-30T03:52:06.153Z,6.22
2022-08-30T03:56:08.181Z,5.28
2022-08-30T04:00:11.575Z,6.60
2022-08-30T04:04:17.415Z,5.20
2022-08-30T04:08:22.811Z,4.90
2022-08-30T04:12:24.748Z,5.30
2022-08-30T04:16:26.793Z,6.68
2022-08-30T04:20:28.786Z,7.97
2022-08-30T04:24:30.699Z,8.32
2022-08-30T04:28:34.055Z,8.48
2022-08-30T04:32:36.385Z,5.95
2022-08-30T04:36:38.354Z,7.82
2022-08-30T04:40:50.686Z,5.65
2022-08-30T04:44:52.617Z,7.82
2022-08-30T04:48:54.527Z,8.18
2022-08-30T04:52:56.432Z,5.72
2022-08-30T04:56:58.330Z,6.13
2022-08-30T05:01:00.253Z,5.85
2022-08-30T05:05:21.329Z,6.57
2022-08-30T05:09:23.346Z,6.70
2022-08-30T05:13:35.616Z,6.18
2022-08-30T05:17:39.511Z,8.73
2022-08-30T05:21:41.513Z,6.93
2022-08-30T05:25:43.558Z,7.93
2022-08-30T05:29:45.642Z,6.90
2022-08-30T05:33:49.557Z,7.32
2022-08-30T05:37:51.521Z,6.68
2022-08-30T05:41:57.582Z,8.35
2022-08-30T05:46:03.961Z,6.60
2022-08-30T05:50:07.196Z,8.50
2022-08-30T05:54:09.456Z,9.02
2022-08-30T05:58:11.317Z,6.88
2022-08-30T06:02:13.246Z,6.65
2022-08-30T06:06:16.022Z,6.78
2022-08-30T06:10:17.991Z,7.43
2022-08-30T06:14:19.995Z,7.28
2022-08-30T06:18:28.349Z,5.60
2022-08-30T06:22:30.726Z,5.60
2022-08-30T06:26:38.647Z,6.95
2022-08-30T06:34:43.520Z,5.47
2022-08-30T06:38:46.333Z,5.40
2022-08-30T06:42:48.377Z,6.00
2022-08-30T06:46:50.481Z,7.30
2022-08-30T06:50:55.938Z,7.78
2022-08-30T06:54:59.111Z,7.32
2022-08-30T06:59:01.119Z,7.38
2022-08-30T07:03:03.175Z,7.10
2022-08-30T07:07:05.497Z,7.25
2022-08-30T07:11:08.071Z,8.70
2022-08-30T07:15:10.754Z,8.57
2022-08-30T07:19:20.330Z,6.07
2022-08-30T07:23:23.739Z,7.95
2022-08-30T07:27:26.035Z,7.70
2022-08-30T07:31:28.520Z,7.32
2022-08-30T07:35:31.557Z,7.75
2022-08-30T07:39:39.198Z,7.28
2022-08-30T07:43:46.844Z,6.05
2022-08-30T07:47:48.749Z,5.90
2022-08-30T07:51:52.019Z,5.40
2022-08-30T07:55:54.587Z,5.18
2022-08-30T07:59:56.475Z,4.55
2022-08-30T08:03:58.492Z,4.70
2022-08-30T08:08:00.449Z,4.57
2022-08-30T08:12:05.415Z,5.03
2022-08-30T08:16:07.586Z,4.32
2022-08-30T08:20:09.885Z,5.10
2022-08-30T08:24:12.146Z,4.50
2022-08-30T08:28:14.154Z,4.30
2022-08-30T08:32:16.005Z,4.00
2022-08-30T08:36:18.658Z,4.80
2022-08-30T08:40:21.358Z,4.60
2022-08-30T08:44:45.406Z,4.07
2022-08-30T08:49:01.412Z,4.18
2022-08-30T08:53:45.439Z,3.90
2022-08-30T08:57:48.300Z,4.25
2022-08-30T09:01:51.015Z,4.13
2022-08-30T09:05:54.864Z,3.88
2022-08-30T09:10:00.638Z,3.95
2022-08-30T09:14:03.227Z,3.55
2022-08-30T09:18:12.900Z,3.13
2022-08-30T09:22:38.063Z,3.93
2022-08-30T09:26:39.969Z,3.97
2022-08-30T09:31:18.123Z,3.05
2022-08-30T09:35:44.458Z,3.23
2022-08-30T09:39:46.440Z,2.90
2022-08-30T09:44:08.251Z,2.78
2022-08-30T09:48:34.048Z,3.28
2022-08-30T09:52:55.944Z,2.65
2022-08-30T09:57:21.825Z,2.80
2022-08-30T10:01:43.807Z,2.83
2022-08-30T10:06:36.899Z,2.60
2022-08-30T10:10:47.493Z,2.70
2022-08-30T10:15:01.472Z,2.50
2022-08-30T10:19:29.903Z,3.00
2022-08-30T10:23:37.461Z,2.70
2022-08-30T10:28:07.036Z,2.40
2022-08-30T10:32:32.418Z,2.83
2022-08-30T10:36:45.122Z,2.60
2022-08-30T10:41:11.787Z,2.47
2022-08-30T10:45:16.035Z,2.78
2022-08-30T10:49:22.406Z,2.60
2022-08-30T10:53:44.838Z,2.92
2022-08-30T10:57:46.985Z,2.50
2022-08-30T11:02:07.711Z,2.50
2022-08-30T11:06:38.909Z,2.60
2022-08-30T11:10:58.969Z,2.40
2022-08-30T11:15:14.770Z,3.67
2022-08-30T11:24:22.467Z,2.28
2022-08-30T11:28:36.347Z,2.47
2022-08-30T11:33:08.897Z,2.30
2022-08-30T11:37:30.162Z,2.20
2022-08-30T11:41:41.927Z,2.30
2022-08-30T11:45:47.919Z,2.30
2022-08-30T11:50:14.097Z,2.05
2022-08-30T11:54:24.780Z,2.38
2022-08-30T11:58:44.933Z,2.20
2022-08-30T12:03:07.739Z,2.17
2022-08-30T12:07:10.193Z,2.40
2022-08-30T12:11:12.096Z,2.40
2022-08-30T12:15:29.048Z,2.25
2022-08-30T12:19:34.056Z,2.03
2022-08-30T12:24:07.855Z,2.10
2022-08-30T12:28:16.707Z,2.40
2022-08-30T12:32:20.687Z,2.40
2022-08-30T12:37:00.842Z,2.40
2022-08-30T12:41:05.695Z,2.30
2022-08-30T12:45:14.659Z,2.42
2022-08-30T12:49:19.294Z,2.50
2022-08-30T12:53:23.804Z,3.13
2022-08-30T12:58:01.284Z,2.50
2022-08-30T13:02:25.232Z,2.30
2022-08-30T13:07:00.444Z,2.50
2022-08-30T13:11:08.982Z,2.22
2022-08-30T13:15:19.048Z,2.55
2022-08-30T13:20:12.328Z,2.22
2022-08-30T13:24:14.290Z,2.25
2022-08-30T13:28:16.593Z,2.33
2022-08-30T13:32:19.938Z,2.67
2022-08-30T13:36:25.623Z,2.35
2022-08-30T13:40:27.963Z,2.58
2022-08-30T13:44:29.858Z,2.60
2022-08-30T13:48:32.625Z,2.40
2022-08-30T13:52:34.540Z,2.42
2022-08-30T13:56:37.163Z,2.42
2022-08-30T14:00:39.252Z,3.17
2022-08-30T14:04:43.790Z,2.50
2022-08-30T14:08:48.554Z,2.70
2022-08-30T14:12:57.348Z,2.90
2022-08-30T14:17:02.768Z,2.60
2022-08-30T14:21:04.796Z,3.00
2022-08-30T14:25:08.107Z,3.25
2022-08-30T14:29:11.985Z,3.35
2022-08-30T14:33:14.422Z,2.90
2022-08-30T14:37:16.452Z,3.20
2022-08-30T14:41:21.669Z,4.05
2022-08-30T14:45:23.624Z,3.25
2022-08-30T14:49:25.952Z,2.83
2022-08-30T14:53:28.782Z,2.88
2022-08-30T14:57:30.691Z,3.10
2022-08-30T15:01:36.990Z,3.20
2022-08-30T15:05:39.264Z,3.05
2022-08-30T15:09:41.168Z,3.05
2022-08-30T15:13:46.450Z,3.40
2022-08-30T15:17:49.283Z,3.08
2022-08-30T15:21:51.330Z,3.50
2022-08-30T15:25:54.388Z,3.38
2022-08-30T15:29:56.298Z,3.00
2022-08-30T15:33:59.378Z,3.20
2022-08-30T15:38:01.319Z,3.35
2022-08-30T15:42:03.603Z,3.70
2022-08-30T15:46:29.523Z,3.83
2022-08-30T15:50:32.112Z,3.95
2022-08-30T15:54:34.224Z,4.07
2022-08-30T15:58:36.378Z,4.03
2022-08-30T16:02:38.583Z,3.70
2022-08-30T16:06:41.722Z,3.30
2022-08-30T16:10:43.878Z,3.80
2022-08-30T16:14:48.165Z,3.60
2022-08-30T16:18:53.695Z,3.80
2022-08-30T16:22:56.370Z,4.35
2022-08-30T16:26:58.362Z,3.85
2022-08-30T16:31:01.157Z,3.53
2022-08-30T16:35:06.545Z,3.80
2022-08-30T16:39:09.666Z,4.03
2022-08-30T16:43:11.699Z,3.55
2022-08-30T16:47:13.602Z,4.07
2022-08-30T16:51:20.617Z,3.97
2022-08-30T16:55:22.777Z,3.97
2022-08-30T16:59:25.015Z,4.35
2022-08-30T17:03:27.082Z,4.05
2022-08-30T17:07:32.755Z,4.25
2022-08-30T17:11:37.026Z,4.60
2022-08-30T17:15:39.449Z,3.70
2022-08-30T17:19:43.056Z,4.07
2022-08-30T17:23:45.070Z,4.10
2022-08-30T17:27:46.977Z,4.22
2022-08-30T17:31:50.987Z,3.92
2022-08-30T17:35:54.901Z,4.13
2022-08-30T17:40:00.166Z,4.60
2022-08-30T17:44:02.634Z,4.40
2022-08-30T17:48:06.991Z,4.75
2022-08-30T17:52:11.406Z,4.72
2022-08-30T17:56:14.444Z,4.65
2022-08-30T18:00:16.790Z,4.45
2022-08-30T18:04:20.731Z,4.32
2022-08-30T18:08:22.635Z,4.40
2022-08-30T18:12:24.629Z,4.85
2022-08-30T18:16:28.877Z,4.38
2022-08-30T18:20:31.964Z,4.30
2022-08-30T18:24:34.638Z,4.68
2022-08-30T18:28:36.741Z,4.57
2022-08-30T18:32:38.691Z,4.32
2022-08-30T18:36:41.464Z,4.40
2022-08-30T18:40:43.742Z,3.70
2022-08-30T18:44:45.783Z,4.88
2022-08-30T18:48:47.958Z,4.60
2022-08-30T18:52:49.862Z,4.35
2022-08-30T18:56:51.902Z,6.95
2022-08-30T19:00:56.819Z,4.65
2022-08-30T19:04:59.195Z,4.47
2022-08-30T19:09:01.416Z,5.05
2022-08-30T19:13:03.388Z,5.18
2022-08-30T19:17:07.092Z,4.78
2022-08-30T19:21:12.662Z,4.22
2022-08-30T19:25:17.702Z,4.85
2022-08-30T19:29:19.866Z,5.10
2022-08-30T19:33:21.785Z,4.82
2022-08-30T19:37:24.174Z,5.00
2022-08-30T19:41:26.246Z,4.40
2022-08-30T19:45:28.207Z,4.82
2022-08-30T19:49:30.242Z,4.55
2022-08-30T19:53:33.707Z,5.22
2022-08-30T19:57:35.937Z,4.80
2022-08-30T20:01:37.975Z,4.93
2022-08-30T20:05:40.013Z,4.68
2022-08-30T20:09:41.917Z,5.30
2022-08-30T20:13:44.026Z,5.38
2022-08-30T20:18:03.148Z,4.95
2022-08-30T20:22:08.370Z,5.55
2022-08-30T20:26:12.305Z,5.78
2022-08-30T20:30:15.555Z,5.50
2022-08-30T20:34:17.462Z,5.30
2022-08-30T20:38:21.737Z,5.40
2022-08-30T20:42:25.666Z,5.35
2022-08-30T20:46:33.407Z,5.18
2022-08-30T20:50:38.862Z,5.10
2022-08-30T20:54:40.940Z,4.95
2022-08-30T20:58:43.153Z,5.40
2022-08-30T21:02:46.847Z,4.70
2022-08-30T21:06:50.338Z,5.68
2022-08-30T21:10:54.637Z,4.97
2022-08-30T21:14:56.590Z,4.90
2022-08-30T21:18:58.561Z,5.40
2022-08-30T21:23:00.555Z,5.80
2022-08-30T21:27:03.016Z,5.57
2022-08-30T21:31:11.763Z,5.25
2022-08-30T21:35:32.547Z,5.22
2022-08-30T21:39:34.740Z,5.65
2022-08-30T21:43:36.697Z,5.75
2022-08-30T21:47:39.033Z,5.55
2022-08-30T21:51:44.940Z,5.47
2022-08-30T21:55:48.181Z,5.32
2022-08-30T21:59:50.423Z,5.53
2022-08-30T22:03:54.267Z,5.10
2022-08-30T22:07:56.154Z,5.35
2022-08-30T22:11:58.083Z,5.05
2022-08-30T22:16:00.234Z,5.47
2022-08-30T22:20:02.349Z,5.35
2022-08-30T22:24:05.142Z,5.47
2022-08-30T22:28:07.076Z,5.43
2022-08-30T22:32:09.119Z,5.65
2022-08-30T22:36:14.634Z,5.68
2022-08-30T22:40:16.598Z,5.50
2022-08-30T22:44:18.935Z,5.45
2022-08-30T22:48:20.832Z,6.10
2022-08-30T22:52:25.560Z,5.72
2022-08-30T22:56:27.708Z,6.05
2022-08-30T23:00:29.607Z,5.40
2022-08-30T23:04:32.653Z,5.60
2022-08-30T23:08:34.550Z,5.80
2022-08-30T23:12:37.042Z,5.60
2022-08-30T23:16:39.035Z,5.05
2022-08-30T23:20:40.988Z,5.55
2022-08-30T23:25:01.592Z,5.82
2022-08-30T23:29:22.957Z,5.57
2022-08-30T23:33:43.341Z,5.63
2022-08-30T23:38:03.477Z,5.50
2022-08-30T23:42:23.848Z,5.65
2022-08-30T23:46:44.118Z,5.45
2022-08-30T23:51:04.355Z,5.55
2022-08-30T23:55:26.564Z,5.57
2022-08-30T23:59:47.144Z,6.30
